Time;durP1;ratioP1;P1;durP2;ratioP2;P2;SDS_P1;SDS_P2;PMS_P1;PMS_P2;Temp;Humidity;BMP_temperature;BMP_pressure;BME280_temperature;BME280_humidity;BME280_pressure;Samples;Min_cycle;Max_cycle;Signal;HPM_P1;HPM_P2
2022/01/09 00:01:49;;;;;;;;;;;5.10;99.90;;;;;;5092838;28;19931;-47
2022/01/09 00:04:14;;;;;;;;;;;5.10;99.90;;;;;;5089319;28;19948;-47
2022/01/09 00:06:40;;;;;;;;;;;5.10;99.90;;;;;;5073715;28;19920;-50
2022/01/09 00:09:05;;;;;;;;;;;5.10;99.90;;;;;;5072706;28;19909;-49
2022/01/09 00:11:31;;;;;;;;;;;5.10;99.90;;;;;;5073366;28;20399;-47
2022/01/09 00:13:56;;;;;;;;;;;5.10;99.90;;;;;;5073024;28;19909;-50
2022/01/09 00:16:22;;;;;;;;;;;5.10;99.90;;;;;;5072741;28;19915;-49
2022/01/09 00:18:49;;;;;;;;;;;5.10;99.90;;;;;;5073309;28;19909;-48
2022/01/09 00:21:14;;;;;;;;;;;5.10;99.90;;;;;;5073230;28;19975;-47
2022/01/09 00:23:41;;;;;;;;;;;5.10;99.90;;;;;;5072785;28;19925;-48
2022/01/09 00:26:07;;;;;;;;;;;5.10;99.90;;;;;;5073229;28;19908;-48
2022/01/09 00:28:33;;;;;;;;;;;5.10;99.90;;;;;;5073284;28;19954;-47
2022/01/09 00:30:59;;;;;;;;;;;5.10;99.90;;;;;;5072673;28;19916;-49
2022/01/09 00:33:24;;;;;;;;;;;5.10;99.90;;;;;;5073415;28;19935;-50
2022/01/09 00:35:50;;;;;;;;;;;5.10;99.90;;;;;;5089929;28;19912;-49
2022/01/09 00:38:16;;;;;;;;;;;5.10;99.90;;;;;;5092793;28;20263;-52
2022/01/09 00:40:41;;;;;;;;;;;5.10;99.90;;;;;;5093322;28;19909;-48
2022/01/09 00:43:09;;;;;;;;;;;5.10;99.90;;;;;;5090828;28;19927;-50
2022/01/09 00:45:35;;;;;;;;;;;5.10;99.90;;;;;;5093442;28;19908;-49
2022/01/09 00:48:00;;;;;;;;;;;5.10;99.90;;;;;;5093237;28;19908;-46
2022/01/09 00:50:26;;;;;;;;;;;5.10;99.90;;;;;;5092853;28;20377;-45
2022/01/09 00:52:51;;;;;;;;;;;5.10;99.90;;;;;;5093132;28;19970;-45
2022/01/09 00:55:18;;;;;;;;;;;5.20;99.90;;;;;;5093108;28;19916;-44
2022/01/09 00:57:44;;;;;;;;;;;5.20;99.90;;;;;;5092696;28;19954;-45
2022/01/09 01:00:09;;;;;;;;;;;5.10;99.90;;;;;;5093136;28;19913;-45
2022/01/09 01:02:35;;;;;;;;;;;5.10;99.90;;;;;;5092613;28;19920;-46
2022/01/09 01:05:00;;;;;;;;;;;5.20;99.90;;;;;;5092506;28;19953;-45
2022/01/09 01:07:28;;;;;;;;;;;5.20;99.90;;;;;;5093096;28;19908;-45
2022/01/09 01:09:53;;;;;;;;;;;5.20;99.90;;;;;;5092970;28;20355;-45
2022/01/09 01:12:19;;;;;;;;;;;5.20;99.90;;;;;;5092205;28;19931;-45
2022/01/09 01:14:45;;;;;;;;;;;5.20;99.90;;;;;;5072906;28;19948;-45
2022/01/09 01:17:11;;;;;;;;;;;5.10;99.90;;;;;;5072750;28;19908;-46
2022/01/09 01:19:36;;;;;;;;;;;5.20;99.90;;;;;;5072348;28;19908;-45
2022/01/09 01:22:02;;;;;;;;;;;5.20;99.90;;;;;;5072483;28;20012;-45
2022/01/09 01:24:28;;;;;;;;;;;5.20;99.90;;;;;;5072788;28;19916;-46
2022/01/09 01:26:53;;;;;;;;;;;5.20;99.90;;;;;;5074714;28;20370;-47
2022/01/09 01:29:18;;;;;;;;;;;5.20;99.90;;;;;;5076324;28;19909;-45
2022/01/09 01:31:44;;;;;;;;;;;5.20;99.90;;;;;;5076282;28;19908;-45
2022/01/09 01:34:12;;;;;;;;;;;5.20;99.90;;;;;;5092184;28;19913;-45
2022/01/09 01:36:38;;;;;;;;;;;5.20;99.90;;;;;;5096376;28;19908;-45
2022/01/09 01:39:03;;;;;;;;;;;5.20;99.90;;;;;;5096288;28;19953;-46
2022/01/09 01:41:29;;;;;;;;;;;5.10;99.90;;;;;;5095906;28;19912;-45
2022/01/09 01:43:54;;;;;;;;;;;5.10;99.90;;;;;;5096221;28;19912;-44
2022/01/09 01:46:20;;;;;;;;;;;5.20;99.90;;;;;;5095726;28;19908;-44
2022/01/09 01:48:45;;;;;;;;;;;5.10;99.90;;;;;;5096149;28;20348;-45
2022/01/09 01:51:11;;;;;;;;;;;5.20;99.90;;;;;;5095987;28;19908;-44
2022/01/09 01:53:38;;;;;;;;;;;5.10;99.90;;;;;;5080602;28;19924;-44
2022/01/09 01:56:04;;;;;;;;;;;5.10;99.90;;;;;;5075658;28;19963;-45
2022/01/09 01:58:34;;;;;;;;;;;5.20;99.90;;;;;;5075795;28;20340;-45
2022/01/09 02:01:00;;;;;;;;;;;5.10;99.90;;;;;;5074605;28;19920;-44
2022/01/09 02:03:25;;;;;;;;;;;5.20;99.90;;;;;;5075665;28;19916;-46
2022/01/09 02:05:51;;;;;;;;;;;5.20;99.90;;;;;;5075686;28;19908;-45
2022/01/09 02:08:16;;;;;;;;;;;5.10;99.90;;;;;;5074991;28;20383;-46
2022/01/09 02:10:44;;;;;;;;;;;5.20;99.90;;;;;;5075469;28;19915;-43
2022/01/09 02:13:10;;;;;;;;;;;5.10;99.90;;;;;;5075397;28;20003;-43
2022/01/09 02:15:42;;;;;;;;;;;5.10;99.90;;;;;;5074890;28;19995;-44
2022/01/09 02:18:09;;;;;;;;;;;5.10;99.90;;;;;;5075260;28;19909;-44
2022/01/09 02:20:36;;;;;;;;;;;5.20;99.90;;;;;;5075267;28;19909;-44
2022/01/09 02:23:02;;;;;;;;;;;5.20;99.90;;;;;;5083405;28;19920;-44
2022/01/09 02:25:27;;;;;;;;;;;5.20;99.90;;;;;;5095535;28;19908;-44
2022/01/09 02:27:54;;;;;;;;;;;5.20;99.90;;;;;;5095426;28;20271;-44
2022/01/09 02:30:20;;;;;;;;;;;5.20;99.90;;;;;;5094797;28;19977;-44
2022/01/09 02:32:45;;;;;;;;;;;5.20;99.90;;;;;;5095213;28;20366;-45
2022/01/09 02:35:11;;;;;;;;;;;5.20;99.90;;;;;;5095183;28;20008;-44
2022/01/09 02:37:36;;;;;;;;;;;5.20;99.90;;;;;;5094513;28;20347;-45
2022/01/09 02:40:03;;;;;;;;;;;5.20;99.90;;;;;;5095122;28;20374;-46
2022/01/09 02:42:30;;;;;;;;;;;5.20;99.90;;;;;;5094949;28;20366;-48
2022/01/09 02:44:56;;;;;;;;;;;5.20;99.90;;;;;;5094941;28;19984;-46
2022/01/09 02:47:21;;;;;;;;;;;5.20;99.90;;;;;;5094977;28;20951;-44
2022/01/09 02:49:50;;;;;;;;;;;5.20;99.90;;;;;;5094463;28;19908;-44
2022/01/09 02:52:33;;;;;;;;;;;5.20;99.90;;;;;;5091808;28;19920;-44
2022/01/09 02:57:32;;;;;;;;;;;5.20;99.90;;;;;;5075164;28;19912;-44
2022/01/09 02:59:58;;;;;;;;;;;5.20;99.90;;;;;;5074292;28;19909;-43
2022/01/09 03:02:24;;;;;;;;;;;5.20;99.90;;;;;;5073963;28;19927;-41
2022/01/09 03:04:49;;;;;;;;;;;5.30;99.90;;;;;;5073837;28;19912;-42
2022/01/09 03:07:15;;;;;;;;;;;5.30;99.90;;;;;;5074338;28;19991;-42
2022/01/09 03:09:40;;;;;;;;;;;5.30;99.90;;;;;;5074439;28;19908;-42
2022/01/09 03:12:06;;;;;;;;;;;5.30;99.90;;;;;;5076694;28;19912;-43
2022/01/09 03:14:31;;;;;;;;;;;5.40;99.90;;;;;;5094658;28;19924;-42
2022/01/09 03:16:57;;;;;;;;;;;5.50;99.90;;;;;;5094347;28;20329;-43
2022/01/09 03:19:22;;;;;;;;;;;5.50;99.90;;;;;;5094082;28;19999;-43
2022/01/09 03:21:47;;;;;;;;;;;5.50;99.90;;;;;;5094339;28;19908;-43
2022/01/09 03:24:13;;;;;;;;;;;5.60;99.90;;;;;;5094322;28;19912;-41
2022/01/09 03:26:39;;;;;;;;;;;5.60;99.90;;;;;;5093781;28;19908;-42
2022/01/09 03:29:04;;;;;;;;;;;5.70;99.90;;;;;;5094156;28;19948;-43
2022/01/09 03:31:30;;;;;;;;;;;5.70;99.90;;;;;;5093270;28;19908;-42
2022/01/09 03:33:55;;;;;;;;;;;5.70;99.90;;;;;;5073314;28;20441;-43
2022/01/09 03:36:21;;;;;;;;;;;5.80;99.90;;;;;;5073878;28;19940;-42
2022/01/09 03:38:46;;;;;;;;;;;5.80;99.90;;;;;;5073330;28;19909;-47
2022/01/09 03:41:12;;;;;;;;;;;5.80;99.90;;;;;;5073691;28;19915;-41
2022/01/09 03:43:37;;;;;;;;;;;5.90;99.90;;;;;;5073687;28;20011;-44
2022/01/09 03:46:03;;;;;;;;;;;5.90;99.90;;;;;;5073188;28;19955;-41
2022/01/09 03:48:29;;;;;;;;;;;5.90;99.90;;;;;;5073198;28;20371;-44
2022/01/09 03:50:55;;;;;;;;;;;6.00;99.90;;;;;;5073562;28;19912;-41
2022/01/09 03:53:20;;;;;;;;;;;6.00;99.90;;;;;;5090297;28;20393;-43
2022/01/09 03:55:46;;;;;;;;;;;6.10;99.90;;;;;;5093692;28;19908;-42
2022/01/09 03:58:11;;;;;;;;;;;6.10;99.90;;;;;;5093710;28;19909;-42
2022/01/09 04:00:37;;;;;;;;;;;6.20;99.90;;;;;;5093296;28;19965;-41
2022/01/09 04:03:02;;;;;;;;;;;6.30;99.90;;;;;;5091362;28;19924;-46
2022/01/09 04:05:28;;;;;;;;;;;6.40;99.90;;;;;;5093788;28;19908;-41
2022/01/09 04:07:53;;;;;;;;;;;6.50;99.90;;;;;;5093159;28;19954;-41
2022/01/09 04:10:20;;;;;;;;;;;6.50;99.90;;;;;;5093356;28;19919;-43
2022/01/09 04:12:51;;;;;;;;;;;6.50;99.90;;;;;;5091432;28;19908;-42
2022/01/09 04:15:18;;;;;;;;;;;6.50;99.90;;;;;;5073227;28;19954;-44
2022/01/09 04:20:09;;;;;;;;;;;6.50;99.90;;;;;;5083258;28;19923;-41
2022/01/09 04:22:35;;;;;;;;;;;6.50;99.90;;;;;;5081262;28;19921;-41
2022/01/09 04:25:00;;;;;;;;;;;6.50;99.90;;;;;;5083532;28;19908;-41
2022/01/09 04:27:26;;;;;;;;;;;6.50;99.90;;;;;;5082883;28;19970;-43
2022/01/09 04:29:51;;;;;;;;;;;6.60;99.90;;;;;;5081481;28;20002;-41
2022/01/09 04:32:17;;;;;;;;;;;6.60;99.90;;;;;;5089246;28;20287;-42
2022/01/09 04:34:42;;;;;;;;;;;6.70;99.90;;;;;;5093262;28;19958;-42
2022/01/09 04:37:07;;;;;;;;;;;6.70;99.90;;;;;;5092849;28;19995;-42
2022/01/09 04:39:33;;;;;;;;;;;6.70;99.90;;;;;;5093465;28;19944;-42
2022/01/09 04:41:58;;;;;;;;;;;6.70;99.90;;;;;;5093219;28;19919;-44
2022/01/09 04:44:24;;;;;;;;;;;6.70;99.90;;;;;;5092791;28;19961;-42
2022/01/09 04:46:58;;;;;;;;;;;6.70;99.90;;;;;;5093288;28;20400;-42
2022/01/09 04:49:27;;;;;;;;;;;6.80;99.90;;;;;;5093043;28;19908;-42
2022/01/09 04:51:53;;;;;;;;;;;6.80;99.90;;;;;;5093271;28;19908;-42
2022/01/09 04:54:19;;;;;;;;;;;6.80;99.90;;;;;;5093288;28;19963;-42
2022/01/09 04:56:44;;;;;;;;;;;6.80;99.90;;;;;;5092812;28;19946;-41
2022/01/09 04:59:10;;;;;;;;;;;6.70;99.90;;;;;;5093107;28;20316;-42
2022/01/09 05:01:35;;;;;;;;;;;6.80;99.90;;;;;;5095442;28;20077;-42
2022/01/09 05:04:01;;;;;;;;;;;6.70;99.90;;;;;;5077563;28;19962;-42
2022/01/09 05:06:27;;;;;;;;;;;6.80;99.90;;;;;;5076737;28;19924;-42
2022/01/09 05:08:52;;;;;;;;;;;6.80;99.90;;;;;;5076670;28;19909;-42
2022/01/09 05:11:18;;;;;;;;;;;6.70;99.90;;;;;;5075977;28;19915;-42
2022/01/09 05:13:43;;;;;;;;;;;6.80;99.90;;;;;;5076539;28;19908;-43
2022/01/09 05:16:09;;;;;;;;;;;6.80;99.90;;;;;;5076422;28;19908;-43
2022/01/09 05:18:42;;;;;;;;;;;6.80;99.90;;;;;;5075918;28;19934;-44
2022/01/09 05:21:08;;;;;;;;;;;6.80;99.90;;;;;;5076294;28;20351;-46
2022/01/09 05:23:33;;;;;;;;;;;6.70;99.90;;;;;;5076471;28;19916;-42
2022/01/09 05:25:59;;;;;;;;;;;6.70;99.90;;;;;;5075726;28;20377;-42
2022/01/09 05:28:24;;;;;;;;;;;6.70;99.90;;;;;;5076119;28;19912;-42
2022/01/09 05:30:49;;;;;;;;;;;6.70;99.90;;;;;;5076004;28;19908;-43
2022/01/09 05:33:15;;;;;;;;;;;6.70;99.90;;;;;;5076567;28;20011;-42
2022/01/09 05:35:40;;;;;;;;;;;6.70;99.90;;;;;;5076276;28;19947;-42
2022/01/09 05:38:06;;;;;;;;;;;6.70;99.90;;;;;;5076014;28;20364;-43
2022/01/09 05:40:31;;;;;;;;;;;6.70;99.90;;;;;;5075588;28;19908;-43
2022/01/09 05:42:57;;;;;;;;;;;6.70;99.90;;;;;;5075908;28;19938;-43
2022/01/09 05:45:22;;;;;;;;;;;6.70;99.90;;;;;;5075663;28;20299;-45
2022/01/09 05:47:48;;;;;;;;;;;6.60;99.90;;;;;;5075904;28;19913;-43
2022/01/09 05:50:13;;;;;;;;;;;6.70;99.90;;;;;;5075840;28;19947;-42
2022/01/09 05:52:39;;;;;;;;;;;6.60;99.90;;;;;;5074792;28;19919;-42
2022/01/09 05:55:04;;;;;;;;;;;6.60;99.90;;;;;;5075113;28;20374;-43
2022/01/09 05:57:30;;;;;;;;;;;6.60;99.90;;;;;;5075013;28;19917;-42
2022/01/09 05:59:56;;;;;;;;;;;6.60;99.90;;;;;;5074436;28;19909;-45
2022/01/09 06:02:21;;;;;;;;;;;6.50;99.90;;;;;;5077820;28;20279;-42
2022/01/09 06:04:46;;;;;;;;;;;6.50;99.90;;;;;;5095191;28;20472;-44
2022/01/09 06:07:12;;;;;;;;;;;6.50;99.90;;;;;;5094425;28;20004;-44
2022/01/09 06:09:37;;;;;;;;;;;6.50;99.90;;;;;;5095130;28;19954;-46
2022/01/09 06:12:03;;;;;;;;;;;6.50;99.90;;;;;;5094421;28;19961;-43
2022/01/09 06:14:28;;;;;;;;;;;6.40;99.90;;;;;;5094588;28;19908;-43
2022/01/09 06:16:54;;;;;;;;;;;6.40;99.90;;;;;;5094907;28;19978;-43
2022/01/09 06:19:19;;;;;;;;;;;6.40;99.90;;;;;;5094788;28;19912;-42
2022/01/09 06:21:45;;;;;;;;;;;6.40;99.90;;;;;;5094202;28;19914;-42
2022/01/09 06:24:10;;;;;;;;;;;6.40;99.90;;;;;;5094699;28;19913;-43
2022/01/09 06:26:35;;;;;;;;;;;6.40;99.90;;;;;;5094676;28;19943;-44
2022/01/09 06:29:01;;;;;;;;;;;6.30;99.90;;;;;;5094112;28;19915;-43
2022/01/09 06:31:27;;;;;;;;;;;6.30;99.90;;;;;;5092869;28;19999;-43
2022/01/09 06:33:52;;;;;;;;;;;6.30;99.90;;;;;;5074315;28;20355;-43
2022/01/09 06:36:17;;;;;;;;;;;6.30;99.90;;;;;;5073716;28;19908;-45
2022/01/09 06:38:43;;;;;;;;;;;6.30;99.90;;;;;;5074365;28;19915;-43
2022/01/09 06:41:09;;;;;;;;;;;6.30;99.90;;;;;;5074101;28;19953;-43
2022/01/09 06:43:34;;;;;;;;;;;6.40;99.90;;;;;;5073710;28;20024;-44
2022/01/09 06:46:00;;;;;;;;;;;6.30;99.90;;;;;;5073988;28;19951;-45
2022/01/09 06:48:25;;;;;;;;;;;6.30;99.90;;;;;;5074135;28;20252;-43
2022/01/09 06:50:51;;;;;;;;;;;6.30;99.90;;;;;;5073483;28;20001;-43
2022/01/09 06:53:16;;;;;;;;;;;6.30;99.90;;;;;;5073875;28;20558;-43
2022/01/09 06:55:43;;;;;;;;;;;6.30;99.90;;;;;;5073574;28;19915;-46
2022/01/09 06:58:09;;;;;;;;;;;6.20;99.90;;;;;;5073566;28;19918;-45
2022/01/09 07:00:34;;;;;;;;;;;6.30;99.90;;;;;;5073772;28;19909;-44
2022/01/09 07:03:00;;;;;;;;;;;6.30;99.90;;;;;;5086504;28;19924;-43
2022/01/09 07:05:25;;;;;;;;;;;6.30;99.90;;;;;;5094182;28;19916;-43
2022/01/09 07:07:51;;;;;;;;;;;6.30;99.90;;;;;;5093623;28;19915;-44
2022/01/09 07:10:16;;;;;;;;;;;6.30;99.90;;;;;;5093213;28;19965;-45
2022/01/09 07:12:42;;;;;;;;;;;6.30;99.90;;;;;;5093788;28;19908;-45
2022/01/09 07:15:07;;;;;;;;;;;6.30;99.90;;;;;;5093745;28;19908;-44
2022/01/09 07:17:33;;;;;;;;;;;6.30;99.90;;;;;;5093319;28;19954;-45
2022/01/09 07:19:58;;;;;;;;;;;6.30;99.90;;;;;;5093721;28;19908;-45
2022/01/09 07:22:24;;;;;;;;;;;6.30;99.90;;;;;;5093551;28;19916;-45
2022/01/09 07:24:49;;;;;;;;;;;6.30;99.90;;;;;;5092506;28;20382;-45
2022/01/09 07:27:15;;;;;;;;;;;6.30;99.90;;;;;;5093474;28;19958;-44
2022/01/09 07:29:40;;;;;;;;;;;6.20;99.90;;;;;;5093660;28;19934;-45
2022/01/09 07:32:06;;;;;;;;;;;6.20;99.90;;;;;;5084293;28;20271;-45
2022/01/09 07:34:31;;;;;;;;;;;6.20;99.90;;;;;;5073335;28;20349;-46
2022/01/09 07:36:57;;;;;;;;;;;6.20;99.90;;;;;;5073175;28;20350;-45
2022/01/09 07:39:22;;;;;;;;;;;6.20;99.90;;;;;;5072626;28;19908;-46
2022/01/09 07:41:49;;;;;;;;;;;6.10;99.90;;;;;;5072969;28;20351;-45
2022/01/09 07:44:15;;;;;;;;;;;6.10;99.90;;;;;;5072950;28;19938;-48
2022/01/09 07:46:40;;;;;;;;;;;6.10;99.90;;;;;;5072581;28;20347;-46
2022/01/09 07:49:05;;;;;;;;;;;6.10;99.90;;;;;;5072987;28;20409;-45
2022/01/09 07:51:31;;;;;;;;;;;6.10;99.90;;;;;;5077576;28;19915;-45
2022/01/09 07:53:56;;;;;;;;;;;6.10;99.90;;;;;;5092740;28;19923;-47
2022/01/09 07:56:22;;;;;;;;;;;6.10;99.90;;;;;;5092691;28;19912;-45
2022/01/09 07:58:47;;;;;;;;;;;6.00;99.90;;;;;;5093031;28;19923;-46
2022/01/09 08:01:13;;;;;;;;;;;6.00;99.90;;;;;;5091988;28;20045;-46
2022/01/09 08:03:38;;;;;;;;;;;6.00;99.90;;;;;;5093042;28;19926;-47
2022/01/09 08:06:04;;;;;;;;;;;6.00;99.90;;;;;;5092414;28;20275;-45
2022/01/09 08:08:29;;;;;;;;;;;6.00;99.90;;;;;;5093090;28;20029;-46
2022/01/09 08:10:55;;;;;;;;;;;5.90;99.90;;;;;;5090752;28;20355;-46
2022/01/09 08:13:20;;;;;;;;;;;5.90;99.90;;;;;;5071975;28;20027;-46
2022/01/09 08:15:46;;;;;;;;;;;5.90;99.90;;;;;;5072749;28;19912;-46
2022/01/09 08:18:11;;;;;;;;;;;5.90;99.90;;;;;;5072622;28;20338;-46
2022/01/09 08:20:37;;;;;;;;;;;5.90;99.90;;;;;;5072238;28;19909;-46
2022/01/09 08:23:03;;;;;;;;;;;6.00;99.90;;;;;;5072457;28;19916;-46
2022/01/09 08:25:29;;;;;;;;;;;5.90;99.90;;;;;;5072512;28;20003;-47
2022/01/09 08:27:55;;;;;;;;;;;5.90;99.90;;;;;;5071943;28;19999;-46
2022/01/09 08:30:20;;;;;;;;;;;5.90;99.90;;;;;;5072410;28;20344;-45
2022/01/09 08:32:47;;;;;;;;;;;5.90;99.90;;;;;;5091755;28;19912;-47
2022/01/09 08:35:12;;;;;;;;;;;5.90;99.90;;;;;;5094102;28;20078;-46
2022/01/09 08:37:41;;;;;;;;;;;5.90;99.90;;;;;;5096962;28;20015;-46
2022/01/09 08:40:07;;;;;;;;;;;5.90;99.90;;;;;;5096696;28;20000;-46
2022/01/09 08:42:33;;;;;;;;;;;5.80;99.90;;;;;;5096241;28;20011;-47
2022/01/09 08:44:58;;;;;;;;;;;5.90;99.90;;;;;;5096692;28;20007;-46
2022/01/09 08:47:24;;;;;;;;;;;5.90;99.90;;;;;;5096691;28;19955;-46
2022/01/09 08:49:49;;;;;;;;;;;5.90;99.90;;;;;;5096050;28;19958;-47
2022/01/09 08:52:15;;;;;;;;;;;5.90;99.90;;;;;;5091491;28;19951;-49
2022/01/09 08:54:41;;;;;;;;;;;5.90;99.90;;;;;;5080377;28;20339;-46
2022/01/09 08:57:06;;;;;;;;;;;5.90;99.90;;;;;;5086051;28;19916;-47
2022/01/09 08:59:32;;;;;;;;;;;5.90;99.90;;;;;;5084061;28;19981;-48
2022/01/09 09:01:57;;;;;;;;;;;5.90;99.90;;;;;;5075898;28;20007;-46
2022/01/09 09:04:24;;;;;;;;;;;5.90;99.90;;;;;;5074962;28;19913;-47
2022/01/09 09:06:49;;;;;;;;;;;5.90;99.90;;;;;;5075170;28;19974;-46
2022/01/09 09:09:15;;;;;;;;;;;5.90;99.90;;;;;;5075304;28;20331;-47
2022/01/09 09:11:41;;;;;;;;;;;5.90;99.90;;;;;;5075488;28;19919;-46
2022/01/09 09:14:06;;;;;;;;;;;6.00;99.90;;;;;;5094364;28;20524;-46
2022/01/09 09:16:32;;;;;;;;;;;6.00;99.90;;;;;;5094742;28;19914;-46
2022/01/09 09:18:57;;;;;;;;;;;6.00;99.90;;;;;;5080432;28;20244;-46
2022/01/09 09:21:23;;;;;;;;;;;6.10;99.90;;;;;;5075012;28;20267;-47
2022/01/09 09:23:48;;;;;;;;;;;6.00;99.90;;;;;;5076328;28;19920;-46
2022/01/09 09:26:16;;;;;;;;;;;6.10;99.90;;;;;;5095877;28;19958;-47
2022/01/09 09:28:42;;;;;;;;;;;6.10;99.90;;;;;;5095771;28;19908;-50
2022/01/09 09:31:07;;;;;;;;;;;6.10;99.90;;;;;;5080330;28;19908;-49
2022/01/09 09:33:33;;;;;;;;;;;6.10;99.90;;;;;;5075366;28;19915;-47
2022/01/09 09:36:00;;;;;;;;;;;6.10;99.90;;;;;;5075508;28;20425;-50
2022/01/09 09:38:25;;;;;;;;;;;6.20;99.90;;;;;;5074953;28;20355;-47
2022/01/09 09:40:51;;;;;;;;;;;6.10;99.90;;;;;;5075173;28;20003;-51
2022/01/09 09:43:17;;;;;;;;;;;6.10;99.90;;;;;;5075099;28;19917;-49
2022/01/09 09:45:43;;;;;;;;;;;6.20;99.90;;;;;;5079163;28;19999;-47
2022/01/09 09:48:08;;;;;;;;;;;6.10;99.90;;;;;;5083322;28;19911;-47
2022/01/09 09:50:34;;;;;;;;;;;6.20;99.90;;;;;;5075071;28;19912;-47
2022/01/09 09:53:01;;;;;;;;;;;6.20;99.90;;;;;;5081226;28;19920;-46
2022/01/09 09:55:27;;;;;;;;;;;6.20;99.90;;;;;;5086263;28;19994;-47
2022/01/09 09:57:53;;;;;;;;;;;6.20;99.90;;;;;;5094921;28;19966;-47
2022/01/09 10:00:20;;;;;;;;;;;6.20;99.90;;;;;;5094793;28;20312;-48
2022/01/09 10:02:52;;;;;;;;;;;6.20;99.90;;;;;;5094707;28;19920;-47
2022/01/09 10:05:25;;;;;;;;;;;6.20;99.90;;;;;;5091166;28;20004;-46
2022/01/09 10:07:54;;;;;;;;;;;6.30;99.90;;;;;;5086427;28;19922;-47
2022/01/09 10:10:21;;;;;;;;;;;6.30;99.90;;;;;;5074921;28;19908;-48
2022/01/09 10:12:47;;;;;;;;;;;6.30;99.90;;;;;;5081168;28;19908;-47
2022/01/09 10:15:15;;;;;;;;;;;6.30;99.90;;;;;;5095070;28;19995;-48
2022/01/09 10:17:48;;;;;;;;;;;6.30;99.90;;;;;;5094689;28;19932;-48
2022/01/09 10:20:24;;;;;;;;;;;6.30;99.90;;;;;;5094319;28;19951;-50
2022/01/09 10:22:49;;;;;;;;;;;6.30;99.90;;;;;;5094605;28;19920;-48
2022/01/09 10:25:32;;;;;;;;;;;6.30;99.90;;;;;;5084932;28;19931;-48
2022/01/09 10:28:05;;;;;;;;;;;6.30;99.90;;;;;;5074177;28;19931;-49
2022/01/09 10:30:36;;;;;;;;;;;6.40;99.90;;;;;;5074240;28;19919;-48
2022/01/09 10:33:09;;;;;;;;;;;6.40;99.90;;;;;;5074411;28;19912;-49
2022/01/09 10:35:35;;;;;;;;;;;6.40;99.90;;;;;;5073576;28;19952;-47
2022/01/09 10:38:12;;;;;;;;;;;6.40;99.90;;;;;;5074411;28;19912;-48
2022/01/09 10:40:38;;;;;;;;;;;6.40;99.90;;;;;;5073994;28;20356;-47
2022/01/09 10:43:14;;;;;;;;;;;6.40;99.90;;;;;;5073727;28;19920;-47
2022/01/09 10:45:41;;;;;;;;;;;6.40;99.90;;;;;;5074061;28;19908;-49
2022/01/09 10:48:26;;;;;;;;;;;6.40;99.90;;;;;;5073866;28;20286;-47
2022/01/09 10:50:52;;;;;;;;;;;6.40;99.90;;;;;;5073911;28;19912;-48
2022/01/09 10:53:23;;;;;;;;;;;6.50;99.90;;;;;;5073950;28;19951;-49
2022/01/09 10:56:00;;;;;;;;;;;6.50;99.90;;;;;;5073271;28;19913;-49
2022/01/09 10:58:27;;;;;;;;;;;6.50;99.90;;;;;;5074022;28;19912;-49
2022/01/09 11:01:06;;;;;;;;;;;6.50;99.90;;;;;;5075888;28;19909;-47
2022/01/09 11:03:31;;;;;;;;;;;6.60;99.90;;;;;;5093198;28;20025;-50
2022/01/09 11:05:58;;;;;;;;;;;6.60;99.90;;;;;;5094135;28;20351;-47
2022/01/09 11:08:24;;;;;;;;;;;6.60;99.90;;;;;;5090496;28;19948;-48
2022/01/09 11:10:49;;;;;;;;;;;6.70;99.90;;;;;;5082602;28;19959;-47
2022/01/09 11:13:16;;;;;;;;;;;6.70;99.90;;;;;;5093755;28;19908;-51
2022/01/09 11:16:32;;;;;;;;;;;6.70;99.90;;;;;;5076851;28;19909;-48
2022/01/09 11:18:28;;;;;;;;;;;6.70;99.90;;;;;;5073387;28;20310;-48
2022/01/09 11:20:53;;;;;;;;;;;6.70;99.90;;;;;;5073363;28;19908;-47
2022/01/09 11:23:20;;;;;;;;;;;6.80;99.90;;;;;;5072803;28;19932;-48
2022/01/09 11:25:49;;;;;;;;;;;6.80;99.90;;;;;;5073209;28;19948;-47
2022/01/09 11:28:25;;;;;;;;;;;6.90;99.90;;;;;;5093051;28;19908;-47
2022/01/09 11:30:57;;;;;;;;;;;6.90;99.90;;;;;;5092654;28;19935;-49
2022/01/09 11:33:31;;;;;;;;;;;7.00;99.90;;;;;;5093668;28;19908;-47
2022/01/09 11:36:04;;;;;;;;;;;7.00;99.90;;;;;;5079583;28;19915;-47
2022/01/09 11:38:52;;;;;;;;;;;7.00;99.90;;;;;;5090509;28;20371;-49
2022/01/09 11:41:19;;;;;;;;;;;7.10;99.90;;;;;;5086761;28;20007;-48
2022/01/09 11:44:05;;;;;;;;;;;7.20;99.90;;;;;;5078155;28;19928;-48
2022/01/09 11:46:51;;;;;;;;;;;7.30;99.90;;;;;;5080293;28;20302;-50
2022/01/09 11:49:20;;;;;;;;;;;7.30;99.90;;;;;;5089281;28;20003;-50
2022/01/09 11:51:56;;;;;;;;;;;7.40;99.90;;;;;;5078418;28;19995;-51
2022/01/09 11:54:22;;;;;;;;;;;7.50;99.90;;;;;;5077368;28;19987;-48
2022/01/09 11:56:53;;;;;;;;;;;7.50;99.90;;;;;;5074740;28;19931;-49
2022/01/09 11:59:23;;;;;;;;;;;7.50;99.90;;;;;;5092781;28;19951;-50
2022/01/09 12:01:50;;;;;;;;;;;7.60;99.90;;;;;;5087730;28;19935;-52
2022/01/09 12:04:30;;;;;;;;;;;7.60;99.90;;;;;;5079720;28;19920;-48
2022/01/09 12:06:56;;;;;;;;;;;7.60;99.90;;;;;;5092644;28;19912;-48
2022/01/09 12:09:41;;;;;;;;;;;7.70;99.90;;;;;;5081428;28;20406;-47
2022/01/09 12:12:09;;;;;;;;;;;7.60;99.90;;;;;;5072984;28;19916;-50
2022/01/09 12:15:03;;;;;;;;;;;7.60;99.90;;;;;;5071912;28;19912;-51
2022/01/09 12:17:39;;;;;;;;;;;7.60;99.90;;;;;;5072524;28;19924;-52
2022/01/09 12:20:08;;;;;;;;;;;7.50;99.90;;;;;;5074112;28;19954;-50
2022/01/09 12:22:46;;;;;;;;;;;7.50;99.90;;;;;;5080081;28;19923;-51
2022/01/09 12:25:28;;;;;;;;;;;7.50;99.90;;;;;;5080640;28;19924;-51
2022/01/09 12:27:59;;;;;;;;;;;7.50;99.90;;;;;;5079474;28;20343;-48
2022/01/09 12:30:32;;;;;;;;;;;7.40;99.90;;;;;;5083329;28;19908;-48
2022/01/09 12:32:58;;;;;;;;;;;7.40;99.90;;;;;;5085817;28;20272;-47
2022/01/09 12:35:24;;;;;;;;;;;7.50;99.90;;;;;;5071000;28;19909;-49
2022/01/09 12:38:00;;;;;;;;;;;7.50;99.90;;;;;;5071510;28;19908;-52
2022/01/09 12:40:27;;;;;;;;;;;7.50;99.90;;;;;;5071248;28;20278;-48
2022/01/09 12:42:55;;;;;;;;;;;7.50;99.90;;;;;;5071530;28;19921;-52
2022/01/09 12:45:21;;;;;;;;;;;7.60;99.90;;;;;;5071651;28;19913;-48
2022/01/09 12:47:47;;;;;;;;;;;7.60;99.90;;;;;;5075939;28;19909;-52
2022/01/09 12:50:12;;;;;;;;;;;7.60;99.90;;;;;;5091204;28;20404;-51
2022/01/09 12:52:38;;;;;;;;;;;7.60;99.90;;;;;;5071290;28;19919;-49
2022/01/09 12:55:05;;;;;;;;;;;7.70;99.90;;;;;;5070978;28;19914;-51
2022/01/09 12:57:48;;;;;;;;;;;7.60;99.90;;;;;;5071654;28;19951;-49
2022/01/09 13:00:14;;;;;;;;;;;7.60;99.90;;;;;;5071736;28;20283;-50
2022/01/09 13:02:39;;;;;;;;;;;7.60;99.90;;;;;;5086350;28;19920;-51
2022/01/09 13:05:05;;;;;;;;;;;7.60;99.90;;;;;;5090194;28;19915;-49
2022/01/09 13:07:31;;;;;;;;;;;7.70;99.90;;;;;;5090147;28;19912;-53
2022/01/09 13:09:56;;;;;;;;;;;7.70;99.90;;;;;;5089739;28;19987;-51
2022/01/09 13:12:23;;;;;;;;;;;7.80;99.90;;;;;;5092421;28;19908;-52
2022/01/09 13:14:48;;;;;;;;;;;7.90;99.90;;;;;;5092363;28;19934;-50
2022/01/09 13:17:16;;;;;;;;;;;8.00;99.90;;;;;;5082469;28;20358;-48
2022/01/09 13:19:41;;;;;;;;;;;7.90;99.90;;;;;;5071959;28;19912;-52
2022/01/09 13:22:07;;;;;;;;;;;7.90;99.90;;;;;;5073649;28;19915;-52
2022/01/09 13:24:32;;;;;;;;;;;8.00;99.90;;;;;;5075188;28;19909;-50
2022/01/09 13:26:59;;;;;;;;;;;8.00;99.90;;;;;;5095921;28;19908;-51
2022/01/09 13:29:25;;;;;;;;;;;8.10;99.90;;;;;;5095899;28;19908;-52
2022/01/09 13:31:53;;;;;;;;;;;8.20;99.90;;;;;;5095203;28;19912;-52
2022/01/09 13:34:20;;;;;;;;;;;8.10;99.90;;;;;;5095852;28;19931;-52
2022/01/09 13:36:46;;;;;;;;;;;8.10;99.90;;;;;;5095111;28;19931;-51
2022/01/09 13:39:14;;;;;;;;;;;8.10;99.90;;;;;;5095778;28;19998;-52
2022/01/09 13:41:42;;;;;;;;;;;8.10;99.90;;;;;;5095580;28;19930;-52
2022/01/09 13:44:08;;;;;;;;;;;8.00;99.90;;;;;;5094999;28;19915;-51
2022/01/09 13:46:34;;;;;;;;;;;8.00;99.90;;;;;;5075825;28;19935;-53
2022/01/09 13:49:00;;;;;;;;;;;7.90;99.90;;;;;;5075226;28;20386;-50
2022/01/09 13:51:42;;;;;;;;;;;8.00;99.90;;;;;;5074687;28;19909;-49
2022/01/09 13:54:08;;;;;;;;;;;8.00;99.90;;;;;;5075145;28;19920;-52
2022/01/09 13:56:34;;;;;;;;;;;8.20;99.90;;;;;;5075083;28;20271;-51
2022/01/09 13:58:59;;;;;;;;;;;8.20;99.90;;;;;;5074657;28;20034;-48
2022/01/09 14:01:41;;;;;;;;;;;8.10;99.90;;;;;;5074610;28;19924;-52
2022/01/09 14:04:14;;;;;;;;;;;7.90;99.90;;;;;;5075745;28;19923;-51
2022/01/09 14:06:40;;;;;;;;;;;7.90;99.90;;;;;;5074335;28;19970;-51
2022/01/09 14:09:07;;;;;;;;;;;8.10;99.90;;;;;;5074928;28;20690;-52
2022/01/09 14:11:33;;;;;;;;;;;8.20;99.90;;;;;;5074926;28;20003;-50
2022/01/09 14:13:58;;;;;;;;;;;8.40;99.90;;;;;;5074503;28;19991;-52
2022/01/09 14:16:31;;;;;;;;;;;8.50;99.90;;;;;;5074787;28;20363;-51
2022/01/09 14:18:56;;;;;;;;;;;8.60;99.90;;;;;;5074364;28;19915;-49
2022/01/09 14:21:22;;;;;;;;;;;8.70;99.90;;;;;;5074805;28;19913;-51
2022/01/09 14:23:49;;;;;;;;;;;8.80;99.90;;;;;;5074572;28;20011;-52
2022/01/09 14:26:21;;;;;;;;;;;8.80;99.90;;;;;;5073798;28;19936;-52
2022/01/09 14:28:49;;;;;;;;;;;8.80;99.90;;;;;;5079507;28;20512;-52
2022/01/09 14:31:15;;;;;;;;;;;8.60;99.90;;;;;;5083547;28;19965;-52
2022/01/09 14:33:42;;;;;;;;;;;8.40;99.90;;;;;;5084300;28;19920;-53
2022/01/09 14:36:10;;;;;;;;;;;8.20;99.90;;;;;;5079829;28;19912;-51